Time;durP1;ratioP1;P1;durP2;ratioP2;P2;SDS_P1;SDS_P2;PMS_P1;PMS_P2;Temp;Humidity;BMP_temperature;BMP_pressure;BME280_temperature;BME280_humidity;BME280_pressure;Samples;Min_cycle;Max_cycle;Signal;HPM_P1;HPM_P2
2022/03/21 00:01:13;;;;;;;11.05;10.05;;;8.20;59.40;;;;;;6025609;23;20324;-79
2022/03/21 00:03:41;;;;;;;11.07;10.02;;;8.10;59.40;;;;;;6030157;23;20199;-79
2022/03/21 00:06:08;;;;;;;11.30;10.15;;;8.10;59.30;;;;;;6023605;23;20253;-79
2022/03/21 00:08:36;;;;;;;12.10;10.45;;;8.10;59.30;;;;;;6017421;23;20776;-79
2022/03/21 00:11:04;;;;;;;10.48;9.43;;;8.10;59.40;;;;;;6027793;23;20546;-78
2022/03/21 00:13:31;;;;;;;10.50;9.50;;;8.10;59.40;;;;;;6019104;23;20280;-79
2022/03/21 00:15:58;;;;;;;10.57;9.57;;;8.10;59.30;;;;;;6019096;23;20194;-79
2022/03/21 00:18:26;;;;;;;10.90;9.80;;;8.00;59.30;;;;;;6027945;23;20194;-78
2022/03/21 00:20:55;;;;;;;11.18;10.07;;;7.90;59.50;;;;;;6017657;23;20192;-79
2022/03/21 00:23:23;;;;;;;10.75;9.75;;;7.90;59.30;;;;;;6020586;23;20710;-78
2022/03/21 00:25:50;;;;;;;11.63;10.52;;;7.90;59.40;;;;;;6029280;23;20200;-79
2022/03/21 00:28:18;;;;;;;10.57;9.48;;;7.90;59.20;;;;;;6020919;23;20315;-78
2022/03/21 00:30:46;;;;;;;11.18;9.95;;;7.90;59.20;;;;;;6016702;23;20189;-79
2022/03/21 00:33:13;;;;;;;10.85;9.75;;;7.80;59.20;;;;;;6015600;23;20190;-79
2022/03/21 00:35:43;;;;;;;10.70;9.60;;;7.80;59.30;;;;;;6035432;23;20264;-79
2022/03/21 00:38:14;;;;;;;10.90;9.93;;;7.80;59.40;;;;;;6024108;23;20760;-79
2022/03/21 00:40:44;;;;;;;11.88;10.77;;;7.80;59.50;;;;;;6024897;23;20198;-79
2022/03/21 00:43:11;;;;;;;10.73;9.73;;;7.80;59.30;;;;;;6011993;23;20197;-79
2022/03/21 00:45:38;;;;;;;10.63;9.63;;;7.70;59.80;;;;;;6020388;23;20190;-78
2022/03/21 00:48:06;;;;;;;10.50;9.50;;;7.70;59.50;;;;;;6013998;23;20230;-80
2022/03/21 00:50:34;;;;;;;10.80;9.30;;;7.70;59.50;;;;;;6017311;23;20269;-79
2022/03/21 00:53:01;;;;;;;10.23;9.13;;;7.70;59.70;;;;;;6026774;23;20221;-78
2022/03/21 00:55:29;;;;;;;10.32;9.32;;;7.60;59.60;;;;;;6020721;23;20194;-79
2022/03/21 00:57:57;;;;;;;10.93;9.77;;;7.60;59.60;;;;;;6024387;23;20235;-78
2022/03/21 01:00:26;;;;;;;10.57;9.48;;;7.60;59.80;;;;;;6018424;23;20268;-78
2022/03/21 01:02:55;;;;;;;10.60;9.57;;;7.60;59.90;;;;;;6025693;23;20224;-78
2022/03/21 01:05:22;;;;;;;10.90;9.82;;;7.60;59.90;;;;;;6022556;23;20299;-79
2022/03/21 01:07:50;;;;;;;10.00;9.02;;;7.60;59.90;;;;;;6025052;23;20222;-79
2022/03/21 01:10:19;;;;;;;10.55;9.45;;;7.50;59.90;;;;;;6030594;23;20640;-79
2022/03/21 01:12:48;;;;;;;10.45;9.45;;;7.50;60.10;;;;;;6018928;23;20274;-78
2022/03/21 01:15:17;;;;;;;10.60;9.60;;;7.50;59.90;;;;;;6016885;23;20191;-79
2022/03/21 01:17:46;;;;;;;11.25;10.15;;;7.50;60.00;;;;;;6030256;23;20217;-79
2022/03/21 01:20:15;;;;;;;10.63;9.52;;;7.50;60.00;;;;;;6014660;23;20215;-79
2022/03/21 01:22:42;;;;;;;9.18;8.27;;;7.50;60.00;;;;;;6010128;23;20616;-78
2022/03/21 01:25:10;;;;;;;11.32;9.85;;;7.50;59.90;;;;;;6012347;23;20190;-79
2022/03/21 01:27:37;;;;;;;10.10;9.10;;;7.50;60.00;;;;;;6025563;23;20623;-78
2022/03/21 01:30:08;;;;;;;10.48;9.38;;;7.50;60.00;;;;;;6014349;23;20195;-79
2022/03/21 01:32:35;;;;;;;10.60;9.60;;;7.40;60.10;;;;;;6007707;23;20268;-78
2022/03/21 01:35:04;;;;;;;9.63;8.65;;;7.40;60.10;;;;;;6013756;23;20654;-78
2022/03/21 01:37:31;;;;;;;11.73;9.65;;;7.40;60.00;;;;;;6015392;23;20206;-79
2022/03/21 01:39:57;;;;;;;11.07;9.50;;;7.40;60.00;;;;;;6012358;23;20194;-79
2022/03/21 01:42:24;;;;;;;9.70;8.70;;;7.30;60.10;;;;;;6017750;23;20211;-79
2022/03/21 01:44:52;;;;;;;10.82;9.50;;;7.30;60.20;;;;;;6019682;23;20191;-79
2022/03/21 01:47:20;;;;;;;10.77;9.75;;;7.30;60.10;;;;;;6013295;23;20700;-79
2022/03/21 01:49:48;;;;;;;10.23;9.23;;;7.30;60.40;;;;;;6014988;23;20186;-79
2022/03/21 01:52:16;;;;;;;12.40;9.70;;;7.30;60.40;;;;;;6026992;23;20534;-78
2022/03/21 01:57:28;;;;;;;9.85;8.85;;;7.30;60.30;;;;;;6011376;23;20708;-79
2022/03/21 01:59:57;;;;;;;9.90;9.00;;;7.30;60.40;;;;;;6019153;23;20790;-79
2022/03/21 02:02:25;;;;;;;10.30;9.25;;;7.20;60.40;;;;;;6025152;23;20197;-78
2022/03/21 02:04:52;;;;;;;10.02;9.13;;;7.20;60.40;;;;;;6022134;23;20285;-79
2022/03/21 02:07:20;;;;;;;10.52;9.07;;;7.20;60.60;;;;;;6007091;23;20304;-78
2022/03/21 02:09:47;;;;;;;9.80;8.90;;;7.10;60.40;;;;;;6025511;23;20289;-79
2022/03/21 02:12:14;;;;;;;9.75;8.75;;;7.10;60.50;;;;;;6028940;23;20575;-78
2022/03/21 02:14:42;;;;;;;9.55;8.70;;;7.10;60.50;;;;;;6019662;23;20375;-78
2022/03/21 02:17:10;;;;;;;10.77;9.68;;;7.10;60.60;;;;;;6024585;23;20289;-77
2022/03/21 02:19:40;;;;;;;10.23;9.23;;;7.10;60.30;;;;;;6029696;23;20200;-79
2022/03/21 02:22:27;;;;;;;10.48;9.35;;;7.10;60.30;;;;;;6019644;23;20194;-78
2022/03/21 02:25:03;;;;;;;9.75;8.85;;;7.10;60.30;;;;;;6016230;23;20194;-79
2022/03/21 02:27:33;;;;;;;9.95;8.90;;;7.20;60.60;;;;;;6013594;23;20205;-79
2022/03/21 02:30:01;;;;;;;10.10;9.10;;;7.20;60.70;;;;;;6007341;23;20648;-78
2022/03/21 02:32:29;;;;;;;10.25;8.98;;;7.30;60.50;;;;;;6020135;23;20213;-79
2022/03/21 02:34:56;;;;;;;10.43;9.38;;;7.30;60.50;;;;;;6013363;23;20241;-79
2022/03/21 02:37:26;;;;;;;10.38;9.25;;;7.30;60.60;;;;;;6012900;23;20221;-79
2022/03/21 02:39:55;;;;;;;9.52;8.60;;;7.40;60.50;;;;;;6031523;23;20189;-78
2022/03/21 02:42:22;;;;;;;10.75;9.65;;;7.40;60.60;;;;;;6017934;23;20222;-78
2022/03/21 02:44:50;;;;;;;9.57;8.73;;;7.30;60.60;;;;;;6018029;23;20595;-79
2022/03/21 02:47:17;;;;;;;9.50;8.55;;;7.20;60.80;;;;;;6029070;23;20209;-79
2022/03/21 02:49:45;;;;;;;10.70;9.40;;;7.20;60.90;;;;;;6021263;23;20229;-80
2022/03/21 02:52:14;;;;;;;10.38;9.30;;;7.10;60.70;;;;;;6021127;23;20280;-78
2022/03/21 02:54:41;;;;;;;10.68;9.68;;;7.10;60.70;;;;;;6021385;23;20577;-79
2022/03/21 02:57:08;;;;;;;9.88;8.95;;;7.00;60.50;;;;;;6019224;23;20285;-78
2022/03/21 02:59:35;;;;;;;11.05;9.20;;;6.90;60.60;;;;;;6024641;23;20208;-78
2022/03/21 03:02:05;;;;;;;9.88;8.70;;;6.90;61.00;;;;;;6022996;23;20217;-78
2022/03/21 03:04:32;;;;;;;10.30;9.30;;;6.80;61.10;;;;;;6009810;23;20191;-78
2022/03/21 03:07:00;;;;;;;9.80;8.80;;;6.80;61.20;;;;;;6006966;23;20289;-78
2022/03/21 03:09:27;;;;;;;11.88;9.00;;;6.70;61.30;;;;;;6023076;23;20236;-78
2022/03/21 03:11:54;;;;;;;10.15;9.15;;;6.70;61.40;;;;;;6020952;23;20277;-77
2022/03/21 03:14:21;;;;;;;10.10;9.07;;;6.80;61.80;;;;;;6011770;23;20201;-78
2022/03/21 03:16:48;;;;;;;12.02;9.23;;;6.60;61.90;;;;;;6028782;23;20275;-78
2022/03/21 03:19:17;;;;;;;9.93;8.93;;;6.60;62.00;;;;;;6018770;23;20588;-78
2022/03/21 03:21:47;;;;;;;10.95;9.73;;;6.60;62.30;;;;;;6027838;23;20267;-78
2022/03/21 03:24:15;;;;;;;10.18;9.15;;;6.50;62.60;;;;;;6025436;23;20204;-78
2022/03/21 03:26:42;;;;;;;10.40;9.40;;;6.50;63.00;;;;;;6005061;23;20210;-78
2022/03/21 03:29:09;;;;;;;11.30;10.20;;;6.40;63.40;;;;;;6021447;23;20218;-79
2022/03/21 03:31:36;;;;;;;10.90;9.80;;;6.30;63.90;;;;;;6012190;23;20282;-78
2022/03/21 03:34:04;;;;;;;9.43;8.57;;;6.20;64.50;;;;;;6029688;23;20185;-78
2022/03/21 03:36:33;;;;;;;11.10;10.10;;;6.20;65.10;;;;;;6030580;23;20210;-78
2022/03/21 03:39:00;;;;;;;10.80;9.68;;;6.00;65.50;;;;;;6027605;23;20280;-78
2022/03/21 03:41:28;;;;;;;10.43;9.43;;;6.00;66.30;;;;;;6015201;23;20268;-79
2022/03/21 03:43:56;;;;;;;10.07;9.07;;;5.80;66.60;;;;;;6025033;23;20297;-79
2022/03/21 03:46:23;;;;;;;11.00;9.90;;;5.70;67.00;;;;;;6025729;23;20218;-78
2022/03/21 03:48:52;;;;;;;9.68;8.68;;;5.60;67.50;;;;;;6020148;23;20756;-78
2022/03/21 03:51:19;;;;;;;10.80;9.70;;;5.50;67.80;;;;;;6018159;23;20251;-78
2022/03/21 03:53:48;;;;;;;11.25;10.15;;;5.50;68.40;;;;;;6025116;23;20595;-78
2022/03/21 03:56:14;;;;;;;10.02;8.98;;;5.40;69.00;;;;;;6014020;23;20233;-77
2022/03/21 03:58:42;;;;;;;11.00;9.90;;;5.30;69.20;;;;;;6020400;23;20201;-78
2022/03/21 04:01:09;;;;;;;10.70;9.65;;;5.20;69.40;;;;;;6027600;23;20712;-78
2022/03/21 04:03:48;;;;;;;11.15;10.00;;;5.10;70.00;;;;;;6030338;23;20276;-78
2022/03/21 04:06:16;;;;;;;10.68;9.65;;;5.10;70.50;;;;;;6023402;23;20766;-78
2022/03/21 04:08:44;;;;;;;10.02;9.02;;;5.00;71.20;;;;;;6027780;23;20308;-78
2022/03/21 04:11:12;;;;;;;9.73;8.80;;;5.00;71.90;;;;;;6019275;23;20200;-79
2022/03/21 04:13:40;;;;;;;11.38;9.60;;;4.90;72.30;;;;;;6027266;23;20198;-78
2022/03/21 04:16:07;;;;;;;10.13;9.02;;;4.90;72.60;;;;;;6022409;23;20285;-79
2022/03/21 04:18:35;;;;;;;10.00;9.00;;;4.90;72.80;;;;;;6012536;23;20281;-78
2022/03/21 04:21:02;;;;;;;10.27;8.88;;;4.80;72.90;;;;;;6013470;23;20206;-78
2022/03/21 04:23:29;;;;;;;10.73;9.70;;;4.80;72.90;;;;;;6021863;23;20573;-78
2022/03/21 04:25:56;;;;;;;10.27;9.27;;;4.80;72.90;;;;;;6037073;23;20633;-78
2022/03/21 04:28:24;;;;;;;9.93;9.02;;;4.80;73.10;;;;;;6024694;23;20225;-77
2022/03/21 04:30:51;;;;;;;10.27;9.15;;;4.80;73.40;;;;;;6030291;23;20189;-78
2022/03/21 04:33:18;;;;;;;10.82;9.60;;;4.70;74.30;;;;;;6018492;23;20272;-78
2022/03/21 04:35:46;;;;;;;11.02;9.70;;;4.70;74.10;;;;;;6013881;23;20206;-78
2022/03/21 04:38:14;;;;;;;11.00;9.90;;;4.70;74.60;;;;;;6015035;23;20201;-78
2022/03/21 04:40:44;;;;;;;10.48;9.48;;;4.70;75.10;;;;;;6020464;23;20269;-78
2022/03/21 04:43:13;;;;;;;10.68;9.50;;;4.60;75.20;;;;;;6018981;23;20194;-78
2022/03/21 04:45:42;;;;;;;10.55;9.55;;;4.60;75.80;;;;;;6015483;23;20221;-78
2022/03/21 04:48:09;;;;;;;10.23;9.10;;;4.50;76.30;;;;;;6026460;23;20222;-82
2022/03/21 04:50:37;;;;;;;11.00;9.90;;;4.40;76.90;;;;;;6026289;23;20186;-80
2022/03/21 04:53:04;;;;;;;10.75;9.57;;;4.40;77.20;;;;;;6029088;23;20280;-77
2022/03/21 04:55:32;;;;;;;10.43;9.20;;;4.30;77.50;;;;;;6020616;23;20275;-78
2022/03/21 04:58:00;;;;;;;12.52;9.70;;;4.20;77.70;;;;;;6009918;23;20296;-78
2022/03/21 05:00:27;;;;;;;10.07;9.05;;;4.20;78.10;;;;;;6020433;23;20273;-77
2022/03/21 05:02:55;;;;;;;12.07;9.82;;;4.10;78.50;;;;;;6013123;23;20242;-77
2022/03/21 05:05:23;;;;;;;10.10;9.10;;;4.10;78.90;;;;;;6020877;23;20297;-76
2022/03/21 05:07:52;;;;;;;10.65;9.05;;;4.10;79.30;;;;;;6022456;23;20555;-77
2022/03/21 05:10:21;;;;;;;10.63;9.50;;;4.10;79.60;;;;;;6025094;23;20352;-78
2022/03/21 05:12:48;;;;;;;10.48;9.48;;;4.10;79.90;;;;;;6017700;23;20280;-76
2022/03/21 05:15:15;;;;;;;10.93;9.80;;;4.10;79.90;;;;;;6020595;23;20196;-77
2022/03/21 05:17:42;;;;;;;10.65;9.57;;;4.00;79.70;;;;;;6030385;23;20597;-76
2022/03/21 05:31:05;;;;;;;10.77;9.60;;;4.20;79.70;;;;;;6015736;23;20197;-78
2022/03/21 05:36:22;;;;;;;10.40;9.32;;;4.10;79.70;;;;;;6017401;23;20209;-77
2022/03/21 05:38:49;;;;;;;10.05;8.95;;;4.10;80.00;;;;;;6023079;23;20205;-77
2022/03/21 05:41:16;;;;;;;10.38;9.27;;;4.10;81.10;;;;;;6011366;23;20192;-76
2022/03/21 05:43:43;;;;;;;10.20;9.05;;;4.10;80.90;;;;;;6025336;23;20185;-78
2022/03/21 05:46:10;;;;;;;12.27;9.80;;;4.00;81.30;;;;;;6022679;23;20573;-78
2022/03/21 05:48:54;;;;;;;11.00;9.90;;;4.00;81.80;;;;;;6025256;23;20246;-79
2022/03/21 05:51:27;;;;;;;13.07;9.00;;;4.00;81.90;;;;;;6022419;23;20188;-78
2022/03/21 05:53:55;;;;;;;10.80;9.70;;;4.10;81.90;;;;;;6022561;23;20416;-78
2022/03/21 05:56:22;;;;;;;11.50;10.30;;;4.10;81.70;;;;;;6021485;23;20209;-77
2022/03/21 05:58:49;;;;;;;11.43;10.00;;;4.20;81.40;;;;;;6019673;23;20271;-78
2022/03/21 06:01:18;;;;;;;11.48;10.23;;;4.20;81.40;;;;;;6025365;23;20203;-78
2022/03/21 06:03:45;;;;;;;11.32;10.23;;;4.30;81.30;;;;;;6022038;23;20296;-78
2022/03/21 06:06:15;;;;;;;10.80;9.40;;;4.40;81.00;;;;;;6024399;23;20289;-78
2022/03/21 06:08:43;;;;;;;10.50;9.02;;;4.40;81.00;;;;;;6018244;23;20861;-78
2022/03/21 06:11:12;;;;;;;10.98;9.25;;;4.40;80.70;;;;;;6025990;23;20203;-83
2022/03/21 06:13:42;;;;;;;10.93;9.60;;;4.60;80.30;;;;;;6020375;23;20194;-78
2022/03/21 06:16:10;;;;;;;11.18;9.95;;;4.60;80.20;;;;;;6018517;23;20215;-78
2022/03/21 06:18:38;;;;;;;11.45;10.10;;;4.70;79.60;;;;;;6027860;23;20272;-78
2022/03/21 06:21:08;;;;;;;12.85;10.85;;;4.90;78.80;;;;;;6025417;23;20198;-78
2022/03/21 06:23:36;;;;;;;9.18;8.38;;;5.00;78.80;;;;;;6021521;23;20196;-78
2022/03/21 06:26:04;;;;;;;10.98;9.73;;;5.20;78.60;;;;;;6028137;23;20205;-78
2022/03/21 06:28:31;;;;;;;11.80;9.60;;;5.30;78.20;;;;;;6028327;23;20682;-78
2022/03/21 06:30:59;;;;;;;10.40;9.23;;;5.50;78.00;;;;;;6028659;23;20186;-79
2022/03/21 06:33:27;;;;;;;11.40;10.20;;;5.60;77.10;;;;;;6026735;23;20185;-77
2022/03/21 06:35:54;;;;;;;12.25;10.95;;;5.80;77.20;;;;;;6028961;23;20201;-78
2022/03/21 06:38:22;;;;;;;10.63;9.60;;;5.90;76.80;;;;;;6027295;23;21320;-78
2022/03/21 06:40:49;;;;;;;11.18;9.98;;;6.20;77.00;;;;;;6020704;23;20313;-78
2022/03/21 06:43:17;;;;;;;11.13;9.80;;;6.30;75.70;;;;;;6019680;23;20197;-78
2022/03/21 06:45:47;;;;;;;10.88;9.48;;;6.50;75.00;;;;;;6023868;23;20202;-78
2022/03/21 06:48:14;;;;;;;13.10;10.70;;;6.70;74.20;;;;;;6023146;23;20236;-78
2022/03/21 06:50:41;;;;;;;12.07;10.88;;;6.80;74.00;;;;;;6017661;23;20221;-78
2022/03/21 06:53:08;;;;;;;10.52;9.48;;;7.10;73.70;;;;;;6021469;23;20185;-78
2022/03/21 06:55:35;;;;;;;11.35;10.25;;;7.30;73.20;;;;;;6028754;23;20214;-78
2022/03/21 06:58:03;;;;;;;11.55;10.45;;;7.50;72.50;;;;;;6021983;23;20268;-78
2022/03/21 07:00:32;;;;;;;10.93;9.75;;;7.80;72.30;;;;;;6020482;23;20533;-78
2022/03/21 07:02:59;;;;;;;11.57;10.48;;;8.00;72.40;;;;;;6027562;23;20189;-78
2022/03/21 07:05:28;;;;;;;11.40;10.30;;;8.30;71.00;;;;;;6025431;23;20263;-78
2022/03/21 07:07:55;;;;;;;12.07;10.88;;;8.70;70.20;;;;;;6021471;23;20178;-79
2022/03/21 07:10:23;;;;;;;12.13;10.73;;;9.00;69.10;;;;;;6020220;23;21783;-78
2022/03/21 07:12:49;;;;;;;11.93;10.63;;;9.20;67.60;;;;;;6024431;23;20660;-78
2022/03/21 07:15:16;;;;;;;11.55;10.38;;;9.20;67.90;;;;;;6013119;23;20224;-79
2022/03/21 07:17:45;;;;;;;12.13;10.80;;;9.20;67.90;;;;;;6019819;23;20202;-79
2022/03/21 07:20:13;;;;;;;10.65;9.65;;;9.30;68.00;;;;;;6017757;23;20188;-79
2022/03/21 07:22:40;;;;;;;12.52;11.00;;;9.60;67.10;;;;;;6017877;23;20188;-78
2022/03/21 07:25:09;;;;;;;11.43;10.43;;;9.70;66.50;;;;;;6021425;23;20624;-79
2022/03/21 07:27:36;;;;;;;10.77;9.70;;;9.80;65.30;;;;;;6023306;23;20191;-78
2022/03/21 07:30:04;;;;;;;12.98;10.57;;;9.80;65.20;;;;;;6024705;23;20764;-78
2022/03/21 07:32:30;;;;;;;11.45;10.25;;;9.80;64.80;;;;;;6016511;23;20184;-79
2022/03/21 07:34:59;;;;;;;11.55;10.38;;;10.10;63.30;;;;;;6019314;23;20210;-79
2022/03/21 07:37:26;;;;;;;12.27;11.13;;;10.10;62.80;;;;;;6017603;23;20726;-78
2022/03/21 07:39:52;;;;;;;10.55;9.55;;;10.40;61.30;;;;;;6024132;23;20219;-78
2022/03/21 07:42:19;;;;;;;10.98;9.90;;;10.30;60.50;;;;;;6021771;23;20184;-79
2022/03/21 07:47:31;;;;;;;11.43;10.27;;;10.50;61.10;;;;;;6019095;23;20710;-79
2022/03/21 07:49:59;;;;;;;10.95;9.85;;;10.90;61.40;;;;;;6016410;23;20217;-79
2022/03/21 07:52:26;;;;;;;10.40;9.35;;;11.30;59.80;;;;;;6016693;23;20196;-78
2022/03/21 07:54:54;;;;;;;11.73;10.50;;;11.80;60.00;;;;;;6020015;23;21596;-78
2022/03/21 07:57:23;;;;;;;11.60;10.52;;;12.10;58.20;;;;;;6012570;23;20196;-79
2022/03/21 07:59:51;;;;;;;12.00;10.77;;;12.10;57.60;;;;;;6020597;23;20209;-78
2022/03/21 08:02:19;;;;;;;11.65;10.45;;;12.30;58.30;;;;;;6014900;23;20190;-78
2022/03/21 08:04:47;;;;;;;12.10;10.85;;;12.50;58.60;;;;;;6020468;23;20690;-78
2022/03/21 08:07:16;;;;;;;10.90;10.00;;;12.70;58.00;;;;;;6015209;23;20715;-78
2022/03/21 08:09:43;;;;;;;11.77;10.63;;;13.00;57.90;;;;;;6017165;23;20668;-78
2022/03/21 08:12:11;;;;;;;12.50;11.32;;;13.10;57.00;;;;;;6022459;23;20186;-78
2022/03/21 08:14:38;;;;;;;11.20;10.20;;;13.10;56.80;;;;;;6020638;23;20217;-78
2022/03/21 08:17:06;;;;;;;11.23;10.13;;;13.10;56.60;;;;;;6017726;23;20657;-78
2022/03/21 08:19:33;;;;;;;12.18;10.85;;;13.40;56.30;;;;;;6017730;23;20267;-79
2022/03/21 08:22:00;;;;;;;12.63;11.43;;;13.60;55.90;;;;;;6022889;23;20533;-78
2022/03/21 08:24:33;;;;;;;11.52;10.50;;;14.00;55.20;;;;;;6020261;23;20181;-78
2022/03/21 08:27:00;;;;;;;11.93;10.82;;;14.20;53.80;;;;;;6014138;23;20232;-78
2022/03/21 08:29:27;;;;;;;12.68;11.48;;;14.20;53.40;;;;;;6026553;23;20287;-79
2022/03/21 08:31:54;;;;;;;11.45;10.25;;;13.80;53.90;;;;;;6018404;23;20200;-80
2022/03/21 08:34:22;;;;;;;12.23;10.85;;;14.00;53.70;;;;;;6027579;23;20205;-77
2022/03/21 08:36:49;;;;;;;12.68;11.48;;;13.90;53.50;;;;;;6024253;23;20213;-78
2022/03/21 08:39:16;;;;;;;12.40;11.13;;;14.30;54.10;;;;;;6027741;23;20272;-79
2022/03/21 08:41:45;;;;;;;11.73;10.63;;;14.60;53.80;;;;;;6029178;23;20472;-75
2022/03/21 08:44:12;;;;;;;11.87;10.87;;;15.00;52.70;;;;;;6014905;23;20468;-78
2022/03/21 08:46:39;;;;;;;14.23;11.60;;;15.40;52.80;;;;;;6028339;23;20466;-77
2022/03/21 08:49:24;;;;;;;12.23;11.20;;;15.80;52.10;;;;;;6026191;23;20446;-77
2022/03/21 08:51:51;;;;;;;11.97;10.83;;;16.20;52.00;;;;;;6025178;23;20455;-77
2022/03/21 08:54:18;;;;;;;13.43;12.07;;;16.80;50.60;;;;;;6022898;23;20467;-78
2022/03/21 08:56:47;;;;;;;12.67;11.50;;;17.00;49.70;;;;;;6016182;23;20990;-78
2022/03/21 08:59:14;;;;;;;13.00;11.80;;;17.10;50.20;;;;;;6022787;23;20496;-79
2022/03/21 09:01:41;;;;;;;12.90;11.63;;;17.40;50.20;;;;;;6022101;23;20490;-79
2022/03/21 09:04:09;;;;;;;12.83;11.63;;;17.90;49.80;;;;;;6025429;23;20539;-79
2022/03/21 09:06:36;;;;;;;12.90;11.70;;;18.20;49.20;;;;;;6026516;23;20927;-78
2022/03/21 09:09:04;;;;;;;12.80;11.70;;;18.40;48.50;;;;;;6019051;23;20441;-77
2022/03/21 09:11:31;;;;;;;13.83;12.60;;;18.40;48.20;;;;;;6024187;23;20465;-79
2022/03/21 09:13:59;;;;;;;14.00;12.77;;;18.50;48.40;;;;;;6016452;23;20963;-76
2022/03/21 09:16:26;;;;;;;13.27;12.07;;;18.40;48.70;;;;;;6020071;23;20459;-80
2022/03/21 09:18:54;;;;;;;12.67;11.63;;;18.60;48.70;;;;;;6026784;23;20518;-82
2022/03/21 09:21:21;;;;;;;12.77;11.57;;;18.70;48.50;;;;;;6018567;23;20452;-81
2022/03/21 09:23:48;;;;;;;14.23;12.93;;;18.80;48.00;;;;;;6026402;23;20507;-78
2022/03/21 09:26:15;;;;;;;14.17;12.93;;;18.60;47.80;;;;;;6026818;23;21019;-83
2022/03/21 09:28:43;;;;;;;12.73;11.70;;;18.40;48.00;;;;;;6027924;23;20508;-77
2022/03/21 09:31:13;;;;;;;13.50;12.30;;;18.40;48.40;;;;;;6017447;23;20471;-79
2022/03/21 09:33:41;;;;;;;13.90;12.53;;;18.30;48.10;;;;;;6023414;23;20599;-80
2022/03/21 09:36:08;;;;;;;13.37;12.07;;;18.40;48.00;;;;;;6028998;23;20499;-82
2022/03/21 09:38:37;;;;;;;13.17;11.97;;;18.50;47.90;;;;;;6026827;23;20452;-78
2022/03/21 09:41:05;;;;;;;13.77;12.57;;;18.40;47.80;;;;;;6027898;23;20436;-78
2022/03/21 09:43:32;;;;;;;13.23;12.13;;;18.50;48.10;;;;;;6022964;23;21016;-79
2022/03/21 09:45:59;;;;;;;13.53;12.33;;;18.70;47.70;;;;;;6028353;23;20451;-81
2022/03/21 09:48:28;;;;;;;13.33;12.23;;;19.30;47.10;;;;;;6018893;23;20829;-82
2022/03/21 09:50:56;;;;;;;13.63;12.43;;;19.90;47.00;;;;;;6021331;23;20472;-81
2022/03/21 09:53:25;;;;;;;13.03;11.93;;;20.40;46.40;;;;;;6027818;23;20518;-81
2022/03/21 09:55:52;;;;;;;14.30;13.00;;;20.50;45.80;;;;;;6026388;23;20460;-81
2022/03/21 09:58:20;;;;;;;11.97;10.90;;;20.90;45.50;;;;;;6023421;23;20460;-76
2022/03/21 10:00:49;;;;;;;14.70;13.40;;;21.50;47.00;;;;;;6024533;23;20965;-76
2022/03/21 10:03:16;;;;;;;12.97;11.87;;;21.80;44.50;;;;;;6021019;23;20530;-79
2022/03/21 10:05:46;;;;;;;13.10;12.00;;;21.90;46.30;;;;;;6028189;23;20453;-80
2022/03/21 10:08:17;;;;;;;14.27;13.07;;;22.10;45.10;;;;;;6028141;23;20450;-80
2022/03/21 10:10:58;;;;;;;15.97;14.37;;;22.20;43.80;;;;;;6023705;23;20513;-79
2022/03/21 10:13:27;;;;;;;15.97;14.57;;;21.70;43.10;;;;;;6028054;23;20889;-80
2022/03/21 10:16:16;;;;;;;15.77;14.37;;;20.90;43.70;;;;;;6022832;23;20787;-80
2022/03/21 10:18:58;;;;;;;16.40;15.00;;;20.90;43.80;;;;;;6012381;23;20996;-81
2022/03/21 10:21:28;;;;;;;15.20;13.90;;;21.20;43.90;;;;;;6028325;23;20982;-81
2022/03/21 10:23:59;;;;;;;15.37;13.90;;;21.80;43.80;;;;;;6026785;23;20517;-89
2022/03/21 10:26:29;;;;;;;15.00;13.47;;;22.10;43.30;;;;;;6027888;23;20497;-88
2022/03/21 10:28:58;;;;;;;16.50;15.00;;;22.20;42.90;;;;;;6023343;23;20448;-88
2022/03/21 10:31:39;;;;;;;16.37;14.93;;;22.20;43.10;;;;;;6020890;23;21167;-89
2022/03/21 10:34:10;;;;;;;16.63;15.03;;;22.30;43.00;;;;;;6033600;23;20445;-88
2022/03/21 10:36:58;;;;;;;16.77;15.37;;;22.10;43.50;;;;;;6031847;23;20446;-88
2022/03/21 10:39:26;;;;;;;17.10;15.27;;;21.70;43.10;;;;;;6028264;23;20459;-85
2022/03/21 10:41:56;;;;;;;17.53;15.97;;;21.20;42.50;;;;;;6029554;23;20464;-90
2022/03/21 10:44:23;;;;;;;16.10;14.80;;;20.70;42.80;;;;;;6029915;23;20528;-90
2022/03/21 10:46:53;;;;;;;16.50;15.00;;;20.30;43.70;;;;;;6026449;23;20503;-91
2022/03/21 10:49:28;;;;;;;17.10;15.47;;;19.90;44.20;;;;;;6031755;23;20788;-91
2022/03/21 10:51:57;;;;;;;16.20;14.60;;;19.80;44.80;;;;;;6018549;23;20832;-90
2022/03/21 10:54:45;;;;;;;17.10;15.60;;;19.60;44.80;;;;;;6027870;23;20438;-83
2022/03/21 10:57:32;;;;;;;13.80;12.60;;;19.50;46.50;;;;;;6020252;23;20432;-75
2022/03/21 11:00:20;;;;;;;16.17;14.77;;;19.50;46.30;;;;;;6018558;23;21054;-76
2022/03/21 11:02:53;;;;;;;15.90;14.40;;;19.50;45.00;;;;;;6024080;23;20444;-77
2022/03/21 11:05:22;;;;;;;15.17;13.83;;;19.60;45.40;;;;;;6025484;23;20441;-84
2022/03/21 11:07:53;;;;;;;14.63;13.43;;;19.80;46.00;;;;;;6026652;23;20436;-79
2022/03/21 11:10:21;;;;;;;13.87;12.67;;;20.40;45.50;;;;;;6014346;23;20471;-79
2022/03/21 11:12:49;;;;;;;16.10;14.70;;;20.90;47.00;;;;;;6029096;23;20836;-76
2022/03/21 11:15:16;;;;;;;13.30;12.20;;;21.70;45.20;;;;;;6026137;23;20450;-76
2022/03/21 11:17:44;;;;;;;15.07;13.87;;;22.20;44.50;;;;;;6025813;23;20442;-75
2022/03/21 11:20:13;;;;;;;14.60;13.27;;;22.20;43.20;;;;;;6020729;23;20988;-76
2022/03/21 11:22:43;;;;;;;15.00;13.67;;;21.80;43.20;;;;;;6026999;23;20450;-76
2022/03/21 11:25:13;;;;;;;15.77;14.20;;;21.70;44.70;;;;;;6024056;23;20446;-76
2022/03/21 11:28:09;;;;;;;15.97;14.43;;;21.70;43.70;;;;;;6023526;23;20449;-76
2022/03/21 11:30:49;;;;;;;15.70;14.40;;;21.60;43.50;;;;;;6025158;23;20472;-77
2022/03/21 11:33:27;;;;;;;15.57;14.27;;;20.40;43.20;;;;;;6026650;23;20494;-77
2022/03/21 11:36:00;;;;;;;15.40;14.10;;;20.30;44.90;;;;;;6026126;23;20455;-77
2022/03/21 11:38:29;;;;;;;13.67;12.43;;;19.90;44.10;;;;;;6029089;23;20516;-76
2022/03/21 11:41:21;;;;;;;13.53;12.33;;;20.00;45.40;;;;;;6028290;23;20768;-77
2022/03/21 11:44:08;;;;;;;14.30;13.00;;;20.40;45.60;;;;;;6025872;23;20433;-77
2022/03/21 11:46:37;;;;;;;16.00;14.67;;;20.90;45.60;;;;;;6026129;23;20516;-76
2022/03/21 11:49:06;;;;;;;16.80;15.20;;;21.10;43.60;;;;;;6023888;23;21166;-77
2022/03/21 11:51:40;;;;;;;14.37;13.17;;;21.10;43.10;;;;;;6020749;23;20474;-77
2022/03/21 11:54:25;;;;;;;15.10;13.80;;;21.20;44.10;;;;;;6025819;23;20440;-77
2022/03/21 11:56:59;;;;;;;14.60;13.40;;;21.70;43.10;;;;;;6025034;23;20941;-79
2022/03/21 11:59:52;;;;;;;15.60;14.30;;;22.00;43.20;;;;;;6026698;23;20467;-79
2022/03/21 12:02:57;;;;;;;15.20;14.00;;;22.70;42.30;;;;;;6027878;23;20454;-78
2022/03/21 12:05:41;;;;;;;15.17;13.77;;;23.10;41.10;;;;;;6017659;23;20818;-79
2022/03/21 12:08:33;;;;;;;15.80;14.13;;;23.30;42.00;;;;;;6024635;23;20452;-79
2022/03/21 12:11:00;;;;;;;13.63;12.53;;;23.40;39.60;;;;;;6028057;23;20467;-78
2022/03/21 12:13:41;;;;;;;14.70;13.37;;;23.90;40.60;;;;;;6027050;23;21026;-79
2022/03/21 12:16:18;;;;;;;13.80;12.70;;;24.20;39.90;;;;;;6023375;23;20527;-78
2022/03/21 12:19:06;;;;;;;13.60;12.47;;;24.40;39.40;;;;;;6020746;23;20480;-79
2022/03/21 12:21:33;;;;;;;13.93;12.70;;;24.80;39.80;;;;;;6017324;23;20521;-79
2022/03/21 12:24:14;;;;;;;14.40;13.10;;;25.10;39.20;;;;;;6018040;23;20469;-79
2022/03/21 12:26:52;;;;;;;12.83;11.73;;;25.70;38.30;;;;;;6025296;23;20440;-79
2022/03/21 12:29:34;;;;;;;12.47;11.47;;;25.90;37.60;;;;;;6023412;23;20460;-79
2022/03/21 12:32:24;;;;;;;12.53;11.43;;;25.90;37.30;;;;;;6021926;23;20476;-79
2022/03/21 12:34:52;;;;;;;12.07;10.90;;;26.10;37.20;;;;;;6024092;23;20432;-79
2022/03/21 12:37:40;;;;;;;12.47;11.30;;;26.20;37.10;;;;;;6027264;23;20529;-80
2022/03/21 12:40:10;;;;;;;11.87;10.90;;;26.40;36.60;;;;;;6021082;23;20507;-79
2022/03/21 12:42:43;;;;;;;12.40;11.40;;;26.70;35.90;;;;;;6027412;23;20435;-79
2022/03/21 12:45:17;;;;;;;12.60;11.47;;;26.00;35.60;;;;;;6029464;23;20444;-79
2022/03/21 12:47:44;;;;;;;11.53;10.50;;;25.10;36.40;;;;;;6021842;23;20963;-78
2022/03/21 12:50:19;;;;;;;11.43;10.30;;;24.70;37.30;;;;;;6027273;23;20437;-79
2022/03/21 12:52:53;;;;;;;11.50;10.50;;;24.70;37.10;;;;;;6016991;23;20471;-79
2022/03/21 12:55:20;;;;;;;11.87;10.83;;;24.30;37.70;;;;;;6015745;23;20483;-79
2022/03/21 12:57:55;;;;;;;12.40;11.03;;;24.20;38.40;;;;;;6021059;23;20500;-79
2022/03/21 13:00:26;;;;;;;12.10;10.87;;;24.00;39.30;;;;;;6027248;23;20447;-79
2022/03/21 13:02:56;;;;;;;10.70;9.70;;;24.30;38.80;;;;;;6023642;23;20570;-79
2022/03/21 13:10:54;;;;;;;13.13;11.43;;;24.40;37.10;;;;;;6016496;23;20456;-79
2022/03/21 13:13:21;;;;;;;10.33;9.40;;;23.70;38.10;;;;;;6025041;23;20460;-79
2022/03/21 13:16:03;;;;;;;12.07;10.87;;;23.40;38.10;;;;;;6023857;23;20451;-79